Terminal Aerodrome Forecast
Issued by NWS

Home | Current Version | Previous Version | Text Only | Print | Product List | Glossary On
Versions: 1 2 3 4 5 6 7 8 9 10 11 12 13 14 15 16 17 18 19 20 21 22 23 24 25
000
FTUS45 KSLC 291120
TAFLGU
TAF
KLGU 291120Z 2912/3012 35007KT P6SM VCSH SCT060 SCT100
      TEMPO 2912/2916 -SHRA SCT060 BKN080
     FM291600 VRB03KT P6SM VCSH SCT060 BKN090
     FM292000 33009KT P6SM VCTS SCT050CB BKN080
     FM300300 10006KT P6SM VCSH SCT060 BKN090
     FM300900 12010KT P6SM BKN100=

USA.gov is the U.S. government's official web portal to all federal, state and local government web resources and services.